Time;durP1;ratioP1;P1;durP2;ratioP2;P2;SDS_P1;SDS_P2;PMS_P1;PMS_P2;Temp;Humidity;BMP_temperature;BMP_pressure;BME280_temperature;BME280_humidity;BME280_pressure;Samples;Min_cycle;Max_cycle;Signal;HPM_P1;HPM_P2
2022/07/06 00:01:47;;;;;;;1.25;0.38;;;24.20;83.70;;;-143.79;100.00;62634.88;4995794;28;20121;-58
2022/07/06 00:04:13;;;;;;;1.70;0.30;;;;;;;-143.79;100.00;62634.88;4995802;28;20129;-58
2022/07/06 00:06:39;;;;;;;0.80;0.40;;;24.20;68.40;;;-143.79;100.00;62634.88;4996012;28;20042;-58
2022/07/06 00:09:06;;;;;;;1.25;0.35;;;24.00;58.30;;;-143.79;100.00;62634.88;4995918;28;20038;-58
2022/07/06 00:11:32;;;;;;;0.30;0.30;;;23.80;83.60;;;-143.79;100.00;62634.88;4995924;28;20118;-59
2022/07/06 00:13:58;;;;;;;0.57;0.30;;;24.00;83.20;;;-143.79;100.00;62634.88;4995788;28;20038;-59
2022/07/06 00:16:24;;;;;;;1.42;0.55;;;23.80;83.90;;;-143.79;100.00;62634.88;4995761;28;20109;-59
2022/07/06 00:18:51;;;;;;;1.10;0.30;;;;;;;-143.79;100.00;62634.88;4995742;28;20065;-59
2022/07/06 00:21:17;;;;;;;1.10;0.50;;;;;;;-143.79;100.00;62634.88;4995677;28;20037;-59
2022/07/06 00:23:43;;;;;;;1.17;0.40;;;23.80;67.20;;;-143.79;100.00;62634.88;4995543;28;20061;-60
2022/07/06 00:26:09;;;;;;;2.25;0.32;;;24.10;83.00;;;-143.79;100.00;62634.88;4995585;28;20070;-59
2022/07/06 00:28:35;;;;;;;0.95;0.40;;;24.00;80.60;;;-143.79;100.00;62634.88;4995541;28;20088;-60
2022/07/06 00:31:01;;;;;;;0.60;0.43;;;24.00;60.10;;;-143.79;100.00;62634.88;4994292;28;20042;-59
2022/07/06 00:33:27;;;;;;;0.70;0.35;;;;;;;-143.79;100.00;62634.88;4995725;28;20046;-59
2022/07/06 00:35:53;;;;;;;0.45;0.30;;;;;;;-143.79;100.00;62634.88;4995437;28;20069;-59
2022/07/06 00:38:19;;;;;;;0.68;0.30;;;23.80;61.20;;;-143.79;100.00;62634.88;4995371;28;20473;-59
2022/07/06 00:40:45;;;;;;;0.40;0.25;;;23.90;60.70;;;-143.79;100.00;62634.88;4994141;28;20489;-59
2022/07/06 00:43:11;;;;;;;0.65;0.30;;;;;;;-143.79;100.00;62634.88;4995312;28;20035;-59
2022/07/06 00:45:37;;;;;;;0.98;0.28;;;23.80;61.10;;;-143.79;100.00;62634.88;4995171;28;20539;-59
2022/07/06 00:48:03;;;;;;;1.02;0.63;;;;;;;-143.79;100.00;62634.88;4995326;28;20026;-59
2022/07/06 00:50:29;;;;;;;0.63;0.30;;;24.00;61.30;;;-143.79;100.00;62634.88;4995109;28;20497;-58
2022/07/06 00:52:59;;;;;;;1.25;0.30;;;23.60;50.30;;;-143.79;100.00;62634.88;4995190;28;20085;-58
2022/07/06 00:55:30;;;;;;;;;;;23.80;50.90;;;-143.79;100.00;62634.88;4995465;28;20034;-58
2022/07/06 00:57:57;;;;;;;0.80;0.35;;;23.80;82.30;;;-143.79;100.00;62634.88;4995056;28;19917;-58
2022/07/06 01:00:25;;;;;;;1.52;0.50;;;23.80;50.40;;;-143.79;100.00;62634.88;4994937;28;20046;-58
2022/07/06 01:02:52;;;;;;;0.63;0.30;;;24.00;82.50;;;-143.79;100.00;62634.88;4994654;28;20046;-58
2022/07/06 01:05:19;;;;;;;0.40;0.22;;;24.00;82.80;;;-143.79;100.00;62634.88;4994960;28;20043;-58
2022/07/06 01:07:48;;;;;;;1.08;0.32;;;23.80;50.40;;;-143.79;100.00;62634.88;4995019;28;20064;-58
2022/07/06 01:10:17;;;;;;;1.00;0.47;;;23.80;50.60;;;-143.79;100.00;62634.88;4994810;28;20141;-58
2022/07/06 01:12:45;;;;;;;0.40;0.30;;;23.70;50.60;;;-143.79;100.00;62634.88;4994748;28;20035;-57
2022/07/06 01:15:23;;;;;;;1.20;0.50;;;23.70;50.80;;;-143.79;100.00;62634.88;4993615;28;20509;-58
2022/07/06 01:17:49;;;;;;;0.40;0.20;;;;;;;-143.79;100.00;62634.88;4994685;28;20038;-58
2022/07/06 01:20:17;;;;;;;1.23;0.40;;;23.80;67.50;;;-143.79;100.00;62634.88;4994659;28;20131;-58
2022/07/06 01:22:46;;;;;;;1.65;0.43;;;23.70;80.60;;;-143.79;100.00;62634.88;4994596;28;20034;-58
2022/07/06 01:25:12;;;;;;;1.75;0.35;;;23.50;82.90;;;-143.79;100.00;62634.88;4994890;28;20030;-58
2022/07/06 01:27:39;;;;;;;0.55;0.35;;;23.70;82.80;;;-143.79;100.00;62634.88;4994522;28;20538;-58
2022/07/06 01:30:14;;;;;;;1.15;0.20;;;23.60;82.70;;;-143.79;100.00;62634.88;4994412;28;20088;-58
2022/07/06 01:32:41;;;;;;;0.50;0.40;;;23.80;83.40;;;-143.79;100.00;62634.88;4994391;28;20031;-58
2022/07/06 01:35:11;;;;;;;0.47;0.30;;;23.40;58.20;;;-143.79;100.00;62634.88;4994384;28;20046;-58
2022/07/06 01:37:38;;;;;;;0.20;0.20;;;23.90;83.30;;;-143.79;100.00;62634.88;4994323;28;20358;-57
2022/07/06 01:40:07;;;;;;;1.17;0.30;;;23.90;83.70;;;-143.79;100.00;62634.88;4994229;28;20047;-58
2022/07/06 01:42:33;;;;;;;0.30;0.20;;;;;;;-143.79;100.00;62634.88;4993830;28;20043;-58
2022/07/06 01:45:00;;;;;;;1.20;0.50;;;23.70;84.00;;;-143.79;100.00;62634.88;4994188;28;20034;-58
2022/07/06 01:47:26;;;;;;;0.73;0.45;;;23.70;84.70;;;-143.79;100.00;62634.88;4994150;28;20050;-58
2022/07/06 01:49:52;;;;;;;1.13;0.40;;;23.80;84.80;;;-143.79;100.00;62634.88;4994284;28;20042;-58
2022/07/06 01:52:18;;;;;;;0.32;0.20;;;23.90;84.30;;;-143.79;100.00;62634.88;4994087;28;20034;-58
2022/07/06 01:54:44;;;;;;;0.30;0.30;;;23.70;83.80;;;-143.79;100.00;62634.88;4993990;28;20134;-58
2022/07/06 01:57:10;;;;;;;0.77;0.60;;;;;;;-143.79;100.00;62634.88;4993987;28;20030;-58
2022/07/06 01:59:36;;;;;;;0.50;0.38;;;23.50;83.30;;;-143.79;100.00;62634.88;4993921;28;20118;-58
2022/07/06 02:02:02;;;;;;;1.27;0.50;;;23.60;83.60;;;-143.79;100.00;62634.88;4993668;28;20129;-58
2022/07/06 02:04:28;;;;;;;1.08;0.38;;;23.50;83.60;;;-143.79;100.00;62634.88;4993826;28;20039;-58
2022/07/06 02:06:53;;;;;;;0.90;0.45;;;23.20;83.20;;;-143.79;100.00;62634.88;4993771;28;20049;-58
2022/07/06 02:09:19;;;;;;;1.20;0.40;;;23.80;79.50;;;-143.79;100.00;62634.88;4993636;28;20482;-58
2022/07/06 02:11:45;;;;;;;0.90;0.20;;;23.80;80.80;;;-143.79;100.00;62634.88;4993659;28;20035;-58
2022/07/06 02:14:11;;;;;;;0.88;0.40;;;;;;;-143.79;100.00;62634.88;4993593;28;20049;-58
2022/07/06 02:16:37;;;;;;;1.65;0.40;;;;;;;-143.79;100.00;62634.88;4993577;28;20113;-58
2022/07/06 02:19:03;;;;;;;1.00;0.43;;;23.40;55.40;;;-143.79;100.00;62634.88;4993532;28;20371;-58
2022/07/06 02:21:29;;;;;;;0.40;0.35;;;23.70;53.70;;;-143.79;100.00;62634.88;4993517;28;20045;-58
2022/07/06 02:23:55;;;;;;;0.43;0.40;;;;;;;-143.79;100.00;62634.88;4993369;28;20030;-57
2022/07/06 02:26:21;;;;;;;1.20;0.40;;;;;;;-143.79;100.00;62634.88;4993415;28;20027;-58
2022/07/06 02:28:47;;;;;;;0.65;0.35;;;;;;;-143.79;100.00;62634.88;4993118;28;20034;-58
2022/07/06 02:31:14;;;;;;;0.68;0.30;;;23.70;61.90;;;-143.79;100.00;62634.88;4992124;28;20489;-58
2022/07/06 02:33:41;;;;;;;0.50;0.28;;;23.10;83.50;;;-143.79;100.00;62634.88;4993356;28;20433;-58
2022/07/06 02:36:07;;;;;;;1.20;0.38;;;;;;;-143.79;100.00;62634.88;4993178;28;20097;-58
2022/07/06 02:38:33;;;;;;;0.35;0.30;;;;;;;-143.79;100.00;62634.88;4993413;28;20485;-58
2022/07/06 02:40:59;;;;;;;1.08;0.30;;;23.40;67.00;;;-143.79;100.00;62634.88;4993258;28;20062;-58
2022/07/06 02:43:25;;;;;;;0.65;0.30;;;;;;;-143.79;100.00;62634.88;4993164;28;20077;-58
2022/07/06 02:45:51;;;;;;;1.60;0.68;;;23.20;67.10;;;-143.79;100.00;62634.88;4993173;28;20033;-58
2022/07/06 02:48:19;;;;;;;0.60;0.30;;;;;;;-143.79;100.00;62634.88;4993126;28;20038;-58
2022/07/06 02:50:45;;;;;;;1.48;0.28;;;;;;;-143.79;100.00;62634.88;4992985;28;20038;-57
2022/07/06 02:53:11;;;;;;;1.15;0.40;;;;;;;-143.79;100.00;62634.88;4992368;28;20114;-58
2022/07/06 02:55:37;;;;;;;0.50;0.30;;;;;;;-143.79;100.00;62634.88;4992946;28;20062;-58
2022/07/06 02:58:03;;;;;;;0.80;0.38;;;23.40;65.70;;;-143.79;100.00;62634.88;4993021;28;20069;-58
2022/07/06 03:00:29;;;;;;;0.50;0.45;;;;;;;-143.79;100.00;62634.88;4992956;28;20062;-58
2022/07/06 03:02:55;;;;;;;0.43;0.30;;;;;;;-143.79;100.00;62634.88;4992575;28;20047;-58
2022/07/06 03:05:21;;;;;;;0.82;0.40;;;;;;;-143.79;100.00;62634.88;4992832;28;20030;-58
2022/07/06 03:07:47;;;;;;;0.52;0.28;;;23.60;73.10;;;-143.79;100.00;62634.88;4992835;28;20105;-58
2022/07/06 03:10:13;;;;;;;0.30;0.30;;;;;;;-143.79;100.00;62634.88;4992724;28;20465;-58
2022/07/06 03:12:39;;;;;;;1.05;0.40;;;;;;;-143.79;100.00;62634.88;4992820;28;20066;-58
2022/07/06 03:15:06;;;;;;;0.70;0.50;;;;;;;-143.79;100.00;62634.88;4992798;28;20023;-58
2022/07/06 03:17:31;;;;;;;0.98;0.60;;;23.30;83.80;;;-143.79;100.00;62634.88;4992696;28;20504;-59
2022/07/06 03:19:57;;;;;;;0.70;0.40;;;;;;;-143.79;100.00;62634.88;4992756;28;20062;-59
2022/07/06 03:22:23;;;;;;;1.13;0.22;;;23.50;83.80;;;-143.79;100.00;62634.88;4992597;28;20062;-59
2022/07/06 03:24:49;;;;;;;0.50;0.40;;;23.00;66.70;;;-143.79;100.00;62634.88;4992608;28;20069;-59
2022/07/06 03:27:15;;;;;;;0.30;0.22;;;;;;;-143.79;100.00;62634.88;4992605;28;20093;-59
2022/07/06 03:29:41;;;;;;;1.02;0.43;;;;;;;-143.79;100.00;62634.88;4992800;28;20034;-59
2022/07/06 03:32:07;;;;;;;0.45;0.32;;;23.40;81.50;;;-143.79;100.00;62634.88;4992587;28;20030;-59
2022/07/06 03:34:33;;;;;;;1.38;0.80;;;23.40;83.80;;;-143.79;100.00;62634.88;4992606;28;20046;-59
2022/07/06 03:36:59;;;;;;;1.15;0.40;;;23.50;66.40;;;-143.79;100.00;62634.88;4992582;28;20030;-60
2022/07/06 03:39:25;;;;;;;0.88;0.47;;;;;;;-143.79;100.00;62634.88;4992538;28;20034;-59
2022/07/06 03:41:51;;;;;;;0.68;0.40;;;;;;;-143.79;100.00;62634.88;4992529;28;20088;-59
2022/07/06 03:44:17;;;;;;;0.90;0.40;;;23.00;62.80;;;-143.79;100.00;62634.88;4992549;28;20443;-60
2022/07/06 03:46:43;;;;;;;0.65;0.38;;;;;;;-143.79;100.00;62634.88;4992581;28;20113;-60
2022/07/06 03:49:09;;;;;;;0.63;0.40;;;;;;;-143.79;100.00;62634.88;4992387;28;20121;-59
2022/07/06 03:51:35;;;;;;;1.40;0.40;;;;;;;-143.79;100.00;62634.88;4992763;28;20388;-59
2022/07/06 03:54:01;;;;;;;2.38;0.73;;;;;;;-143.79;100.00;62634.88;4992600;28;20034;-59
2022/07/06 03:56:27;;;;;;;0.60;0.40;;;;;;;-143.79;100.00;62634.88;4992380;28;20038;-59
2022/07/06 03:58:56;;;;;;;0.60;0.30;;;23.50;59.90;;;-143.79;100.00;62634.88;4992399;28;20089;-60
2022/07/06 04:01:22;;;;;;;1.08;0.40;;;23.10;83.90;;;-143.79;100.00;62634.88;4992357;28;20073;-59
2022/07/06 04:03:48;;;;;;;0.35;0.35;;;22.90;83.80;;;-143.79;100.00;62634.88;4992165;28;20074;-59
2022/07/06 04:06:14;;;;;;;0.50;0.43;;;23.30;84.00;;;-143.79;100.00;62634.88;4994471;28;20446;-59
2022/07/06 04:08:40;;;;;;;1.00;0.50;;;;;;;-143.79;100.00;62634.88;4996155;28;20038;-59
2022/07/06 04:11:06;;;;;;;0.73;0.50;;;23.10;83.50;;;-143.79;100.00;62634.88;4995989;28;20093;-59
2022/07/06 04:13:31;;;;;;;0.55;0.30;;;23.20;83.40;;;-143.79;100.00;62634.88;4996134;28;20042;-59
2022/07/06 04:15:58;;;;;;;1.17;0.50;;;23.20;83.30;;;-143.79;100.00;62634.88;4995786;28;20101;-59
2022/07/06 04:18:24;;;;;;;0.40;0.40;;;23.30;83.60;;;-143.79;100.00;62634.88;4995765;28;20048;-59
2022/07/06 04:20:49;;;;;;;0.95;0.47;;;23.10;83.50;;;-143.79;100.00;62634.88;4995744;28;20031;-59
2022/07/06 04:23:15;;;;;;;0.35;0.30;;;23.30;75.20;;;-143.79;100.00;62634.88;4995716;28;20149;-59
2022/07/06 04:25:41;;;;;;;1.70;0.43;;;;;;;-143.79;100.00;62634.88;4995637;28;20034;-59
2022/07/06 04:28:07;;;;;;;0.30;0.30;;;;;;;-143.79;100.00;62634.88;4995664;28;20064;-59
2022/07/06 04:30:33;;;;;;;1.02;0.40;;;23.00;65.60;;;-143.79;100.00;62634.88;4995540;28;20074;-59
2022/07/06 04:32:59;;;;;;;0.38;0.30;;;23.40;83.60;;;-143.79;100.00;62634.88;4995578;28;20031;-59
2022/07/06 04:35:25;;;;;;;0.35;0.35;;;23.40;82.20;;;-143.79;100.00;62634.88;4995785;28;20037;-59
2022/07/06 04:37:51;;;;;;;0.70;0.40;;;23.40;54.70;;;-143.79;100.00;62634.88;4995491;28;20038;-59
2022/07/06 04:40:17;;;;;;;0.90;0.47;;;;;;;-143.79;100.00;62634.88;4995396;28;20034;-59
2022/07/06 04:42:43;;;;;;;0.45;0.20;;;23.40;61.10;;;-143.79;100.00;62634.88;4995341;28;20030;-59
2022/07/06 04:45:10;;;;;;;0.75;0.30;;;23.20;51.70;;;-143.79;100.00;62634.88;4995327;28;20030;-59
2022/07/06 04:47:35;;;;;;;0.80;0.63;;;23.40;84.70;;;-143.79;100.00;62634.88;4995265;28;20074;-59
2022/07/06 04:50:02;;;;;;;1.05;0.40;;;23.30;83.90;;;-143.79;100.00;62634.88;4995199;28;20572;-59
2022/07/06 04:52:28;;;;;;;0.60;0.45;;;;;;;-143.79;100.00;62634.88;4995308;28;20393;-59
2022/07/06 04:54:54;;;;;;;1.05;0.30;;;23.50;84.60;;;-143.79;100.00;62634.88;4995392;28;20027;-59
2022/07/06 04:57:21;;;;;;;1.05;0.30;;;22.90;84.40;;;-143.79;100.00;62634.88;4995081;28;20034;-59
2022/07/06 04:59:47;;;;;;;0.50;0.40;;;;;;;-143.79;100.00;62634.88;4994990;28;20027;-59
2022/07/06 05:02:13;;;;;;;1.50;0.47;;;;;;;-143.79;100.00;62634.88;4994700;28;20058;-59
2022/07/06 05:04:39;;;;;;;0.40;0.32;;;23.10;70.00;;;-143.79;100.00;62634.88;4994902;28;20089;-59
2022/07/06 05:07:05;;;;;;;0.57;0.30;;;;;;;-143.79;100.00;62634.88;4994952;28;20076;-59
2022/07/06 05:09:31;;;;;;;0.73;0.40;;;;;;;-143.79;100.00;62634.88;4994717;28;20065;-59
2022/07/06 05:11:57;;;;;;;1.17;0.70;;;23.20;78.90;;;-143.79;100.00;62634.88;4994749;28;20556;-59
2022/07/06 05:14:23;;;;;;;1.42;0.30;;;;;;;-143.79;100.00;62634.88;4994689;28;20058;-56
2022/07/06 05:16:49;;;;;;;0.50;0.38;;;;;;;-143.79;100.00;62634.88;4993942;28;20037;-57
2022/07/06 05:19:15;;;;;;;0.73;0.30;;;23.40;67.70;;;-143.79;100.00;62634.88;4993700;28;20022;-57
2022/07/06 05:21:41;;;;;;;1.50;0.50;;;;;;;-143.79;100.00;62634.88;4994629;28;20080;-59
2022/07/06 05:24:07;;;;;;;1.80;0.60;;;23.60;64.90;;;-143.79;100.00;62634.88;4994643;28;20045;-57
2022/07/06 05:26:33;;;;;;;1.30;0.50;;;;;;;-143.79;100.00;62634.88;4994459;28;20366;-58
2022/07/06 05:28:59;;;;;;;1.70;0.45;;;;;;;-143.79;100.00;62634.88;4994626;28;20441;-58
2022/07/06 05:31:25;;;;;;;0.35;0.28;;;23.30;56.30;;;-143.79;100.00;62634.88;4994508;28;20045;-59
2022/07/06 05:33:51;;;;;;;0.98;0.40;;;22.80;56.20;;;-143.79;100.00;62634.88;4994683;28;20396;-59
2022/07/06 05:36:18;;;;;;;0.43;0.40;;;;;;;-143.79;100.00;62634.88;4994643;28;20037;-59
2022/07/06 05:38:43;;;;;;;0.47;0.43;;;23.40;85.00;;;-143.79;100.00;62634.88;4994323;28;20030;-60
2022/07/06 05:41:09;;;;;;;0.47;0.43;;;22.90;84.70;;;-143.79;100.00;62634.88;4994274;28;20210;-59
2022/07/06 05:43:37;;;;;;;2.38;0.50;;;23.20;52.10;;;-143.79;100.00;62634.88;4994275;28;20161;-59
2022/07/06 05:46:03;;;;;;;1.25;0.55;;;23.30;85.20;;;-143.79;100.00;62634.88;4994185;28;20038;-60
2022/07/06 05:51:14;;;;;;;0.45;0.30;;;23.30;85.00;;;-143.79;100.00;62634.88;4994450;28;20449;-59
2022/07/06 05:53:40;;;;;;;0.73;0.20;;;23.10;84.90;;;-143.79;100.00;62634.88;4993997;28;20060;-59
2022/07/06 05:56:05;;;;;;;0.82;0.40;;;23.20;84.80;;;-143.79;100.00;62634.88;4993029;28;20473;-59
2022/07/06 05:58:31;;;;;;;0.80;0.35;;;22.90;80.20;;;-143.79;100.00;62634.88;4993892;28;20072;-60
2022/07/06 06:00:57;;;;;;;1.00;0.50;;;;;;;-143.79;100.00;62634.88;4993984;28;20121;-60
2022/07/06 06:03:23;;;;;;;1.23;0.52;;;;;;;-143.79;100.00;62634.88;4993524;28;20042;-59
2022/07/06 06:05:49;;;;;;;1.00;0.30;;;23.30;64.60;;;-143.79;100.00;62634.88;4993765;28;20429;-59
2022/07/06 06:08:15;;;;;;;2.83;0.30;;;;;;;-143.79;100.00;62634.88;4994046;28;20034;-59
2022/07/06 06:10:41;;;;;;;0.60;0.30;;;22.80;84.00;;;-143.79;100.00;62634.88;4993670;28;20441;-59
2022/07/06 06:13:07;;;;;;;1.58;0.30;;;22.80;62.30;;;-143.79;100.00;62634.88;4993677;28;20092;-59
2022/07/06 06:15:34;;;;;;;0.52;0.30;;;;;;;-143.79;100.00;62634.88;4993895;28;20042;-57
2022/07/06 06:18:00;;;;;;;0.30;0.30;;;23.30;84.20;;;-143.79;100.00;62634.88;4993627;28;20050;-57
2022/07/06 06:20:26;;;;;;;1.63;0.30;;;23.50;84.20;;;-143.79;100.00;62634.88;4993611;28;20436;-57
2022/07/06 06:22:56;;;;;;;0.40;0.40;;;23.20;52.00;;;-143.79;100.00;62634.88;4993759;28;20396;-57
2022/07/06 06:25:32;;;;;;;0.57;0.40;;;23.20;83.70;;;-143.79;100.00;62634.88;4993437;28;20084;-59
2022/07/06 06:27:59;;;;;;;1.95;0.30;;;23.30;84.00;;;-143.79;100.00;62634.88;4993310;28;20029;-59
2022/07/06 06:30:24;;;;;;;0.50;0.38;;;23.40;82.50;;;-143.79;100.00;62634.88;4993226;28;20126;-59
2022/07/06 06:32:51;;;;;;;1.33;0.43;;;;;;;-143.79;100.00;62634.88;4993313;28;20062;-59
2022/07/06 06:35:17;;;;;;;0.30;0.30;;;23.20;83.90;;;-143.79;100.00;62634.88;4993030;28;20332;-59
2022/07/06 06:37:42;;;;;;;0.60;0.40;;;23.40;81.90;;;-143.79;100.00;62634.88;4992992;28;20125;-59
2022/07/06 06:40:09;;;;;;;0.95;0.30;;;23.10;70.40;;;-143.79;100.00;62634.88;4993030;28;20169;-60
2022/07/06 06:42:38;;;;;;;1.25;0.50;;;23.30;50.90;;;-143.79;100.00;62634.88;4992925;28;20042;-60
2022/07/06 06:45:05;;;;;;;0.40;0.38;;;23.20;83.60;;;-143.79;100.00;62634.88;4992959;28;20045;-60
2022/07/06 06:47:31;;;;;;;0.45;0.30;;;23.30;83.40;;;-143.79;100.00;62634.88;4993255;28;20393;-59
2022/07/06 06:49:57;;;;;;;1.58;0.40;;;22.90;53.70;;;-143.79;100.00;62634.88;4993089;28;20034;-59
2022/07/06 06:52:23;;;;;;;1.05;0.38;;;;;;;-143.79;100.00;62634.88;4993143;28;20023;-59
2022/07/06 06:54:49;;;;;;;1.52;0.52;;;;;;;-143.79;100.00;62634.88;4992890;28;20366;-59
2022/07/06 06:57:15;;;;;;;10.90;2.08;;;;;;;-143.79;100.00;62634.88;4992942;28;20477;-59
2022/07/06 06:59:41;;;;;;;13.43;1.63;;;23.50;76.00;;;-143.79;100.00;62634.88;4992787;28;20042;-59
2022/07/06 07:02:07;;;;;;;5.20;1.60;;;24.40;53.00;;;-143.79;100.00;62634.88;4992471;28;20042;-59
2022/07/06 07:04:33;;;;;;;6.72;1.90;;;;;;;-143.79;100.00;62634.88;4992674;28;20073;-59
2022/07/06 07:06:59;;;;;;;6.80;1.70;;;;;;;-143.79;100.00;62634.88;4992758;28;20109;-59
2022/07/06 07:09:25;;;;;;;7.43;1.67;;;23.50;68.10;;;-143.79;100.00;62634.88;4992652;28;20077;-59
2022/07/06 07:11:51;;;;;;;8.13;1.58;;;;;;;-143.79;100.00;62634.88;4992625;28;20031;-59
2022/07/06 07:14:17;;;;;;;6.32;1.35;;;;;;;-143.79;100.00;62634.88;4992727;28;20044;-59
2022/07/06 07:16:43;;;;;;;7.22;1.90;;;;;;;-143.79;100.00;62634.88;4992962;28;20374;-59
2022/07/06 07:19:09;;;;;;;5.00;0.90;;;;;;;-143.79;100.00;62634.88;4992746;28;20026;-59
2022/07/06 07:21:35;;;;;;;7.25;1.30;;;23.70;69.00;;;-143.79;100.00;62634.88;4992639;28;20085;-59
2022/07/06 07:24:01;;;;;;;3.30;0.90;;;;;;;-143.79;100.00;62634.88;4992821;28;20058;-58
2022/07/06 07:26:27;;;;;;;4.38;1.35;;;23.00;55.30;;;-143.79;100.00;62634.88;4992620;28;20481;-58
2022/07/06 07:28:53;;;;;;;8.18;0.90;;;;;;;-143.79;100.00;62634.88;4992600;28;20037;-58
2022/07/06 07:31:19;;;;;;;2.38;0.80;;;23.50;61.90;;;-143.79;100.00;62634.88;4992542;28;20034;-58
2022/07/06 07:33:45;;;;;;;2.22;0.80;;;;;;;-143.79;100.00;62634.88;4992944;28;20049;-58
2022/07/06 07:36:11;;;;;;;5.05;1.02;;;;;;;-143.79;100.00;62634.88;4992537;28;20034;-57
2022/07/06 07:38:37;;;;;;;3.90;1.42;;;;;;;-143.79;100.00;62634.88;4992734;28;20432;-57
2022/07/06 07:41:03;;;;;;;5.63;0.90;;;;;;;-143.79;100.00;62634.88;4995496;28;20030;-57
2022/07/06 07:43:29;;;;;;;4.05;1.05;;;;;;;-143.79;100.00;62634.88;4996243;28;20026;-60
2022/07/06 07:45:55;;;;;;;5.30;0.98;;;23.80;79.00;;;-143.79;100.00;62634.88;4996073;28;20061;-60
2022/07/06 07:48:21;;;;;;;4.90;0.60;;;;;;;-143.79;100.00;62634.88;4996440;28;20077;-60
2022/07/06 07:50:47;;;;;;;2.55;0.70;;;;;;;-143.79;100.00;62634.88;4996230;28;20034;-60
2022/07/06 07:53:13;;;;;;;3.67;0.47;;;;;;;-143.79;100.00;62634.88;4996474;28;20453;-59
2022/07/06 07:55:39;;;;;;;2.15;0.60;;;;;;;-143.79;100.00;62634.88;4996016;28;20034;-58
2022/07/06 07:58:05;;;;;;;4.00;0.70;;;23.50;59.20;;;-143.79;100.00;62634.88;4996022;28;20101;-57
2022/07/06 08:00:31;;;;;;;4.03;0.77;;;23.50;74.00;;;-143.79;100.00;62634.88;4996020;28;20455;-57
2022/07/06 08:02:57;;;;;;;7.18;0.80;;;;;;;-143.79;100.00;62634.88;4995743;28;20121;-56
2022/07/06 08:05:23;;;;;;;5.30;0.57;;;23.60;73.90;;;-143.79;100.00;62634.88;4996172;28;20417;-57
2022/07/06 08:07:49;;;;;;;2.53;0.65;;;;;;;-143.79;100.00;62634.88;4995955;28;20042;-57
2022/07/06 08:10:15;;;;;;;5.32;0.95;;;;;;;-143.79;100.00;62634.88;4996052;28;20058;-58
2022/07/06 08:12:41;;;;;;;10.27;0.80;;;;;;;-143.79;100.00;62634.88;4995813;28;20031;-58
2022/07/06 08:15:07;;;;;;;4.10;0.60;;;23.30;60.00;;;-143.79;100.00;62634.88;4995762;28;20066;-58
2022/07/06 08:17:33;;;;;;;3.30;0.57;;;23.70;84.90;;;-143.79;100.00;62634.88;4995660;28;20035;-57
2022/07/06 08:19:59;;;;;;;4.13;0.65;;;23.50;85.20;;;-143.79;100.00;62634.88;4995667;28;20603;-56
2022/07/06 08:22:26;;;;;;;3.17;0.50;;;;;;;-143.79;100.00;62634.88;4995602;28;20109;-57
2022/07/06 08:24:52;;;;;;;4.43;0.70;;;23.40;84.70;;;-143.79;100.00;62634.88;4995719;28;20038;-58
2022/07/06 08:27:18;;;;;;;3.60;0.40;;;23.40;85.10;;;-143.79;100.00;62634.88;4995623;28;20580;-57
2022/07/06 08:29:43;;;;;;;3.50;0.60;;;23.90;84.90;;;-143.79;100.00;62634.88;4995597;28;20092;-56
2022/07/06 08:32:09;;;;;;;2.08;0.40;;;23.90;71.10;;;-143.79;100.00;62634.88;4995626;28;20027;-57
2022/07/06 08:34:35;;;;;;;3.85;0.40;;;;;;;-143.79;100.00;62634.88;4995517;28;20040;-56
2022/07/06 08:37:01;;;;;;;3.92;0.50;;;;;;;-143.79;100.00;62634.88;4995464;28;20033;-58
2022/07/06 08:39:27;;;;;;;6.30;0.50;;;;;;;-143.79;100.00;62634.88;4995347;28;20062;-56
2022/07/06 08:41:55;;;;;;;2.97;0.40;;;23.90;70.40;;;-143.79;100.00;62634.88;4995583;28;20026;-57
2022/07/06 08:44:21;;;;;;;1.58;0.30;;;;;;;-143.79;100.00;62634.88;4977794;28;20045;-57
2022/07/06 08:46:51;;;;;;;3.22;0.70;;;23.90;49.40;;;-143.79;100.00;62634.88;4995199;28;20073;-57
2022/07/06 08:49:17;;;;;;;;;;;23.80;50.00;;;-143.79;100.00;62634.88;4995498;28;20034;-58
2022/07/06 08:51:44;;;;;;;2.83;0.30;;;23.70;82.40;;;-143.79;100.00;62634.88;4992747;28;19925;-58
2022/07/06 08:54:11;;;;;;;2.65;0.40;;;23.80;82.20;;;-143.79;100.00;62634.88;4995034;28;20046;-58
2022/07/06 08:56:38;;;;;;;1.17;0.28;;;23.50;50.90;;;-143.79;100.00;62634.88;4994973;28;20044;-58
2022/07/06 08:59:08;;;;;;;1.83;0.28;;;;;;;-143.79;100.00;62634.88;4993915;28;20117;-58
2022/07/06 09:01:36;;;;;;;0.73;0.30;;;24.00;85.70;;;-143.79;100.00;62634.88;4994999;28;20466;-58
2022/07/06 09:04:05;;;;;;;4.25;0.52;;;24.00;51.70;;;-143.79;100.00;62634.88;4993754;28;20054;-59
2022/07/06 09:06:31;;;;;;;1.02;0.32;;;24.00;73.00;;;-143.79;100.00;62634.88;4995090;28;20030;-59
2022/07/06 09:08:58;;;;;;;4.18;0.20;;;24.00;83.70;;;-143.79;100.00;62634.88;4993427;28;20100;-60
2022/07/06 09:11:28;;;;;;;1.75;0.40;;;24.10;50.70;;;-143.79;100.00;62634.88;4994688;28;20037;-60
2022/07/06 09:13:54;;;;;;;2.95;0.35;;;;;;;-143.79;100.00;62634.88;4995054;28;20064;-61
2022/07/06 09:16:29;;;;;;;1.90;0.30;;;24.00;83.40;;;-143.79;100.00;62634.88;4994840;28;20485;-60
2022/07/06 09:18:56;;;;;;;3.20;0.25;;;24.00;57.50;;;-143.79;100.00;62634.88;4994957;28;20034;-59
2022/07/06 09:21:30;;;;;;;2.90;0.20;;;24.00;83.90;;;-143.79;100.00;62634.88;4995625;28;20104;-59
2022/07/06 09:23:58;;;;;;;0.55;0.10;;;24.10;83.60;;;-143.79;100.00;62634.88;4995846;28;20041;-59
2022/07/06 09:26:25;;;;;;;1.40;0.30;;;24.10;83.50;;;-143.79;100.00;62634.88;4997267;28;20478;-59
2022/07/06 09:28:52;;;;;;;1.88;0.40;;;24.50;53.70;;;-143.79;100.00;62634.88;4995521;28;20093;-60
2022/07/06 09:31:18;;;;;;;1.67;0.20;;;;;;;-143.79;100.00;62634.88;4995185;28;20065;-60
2022/07/06 09:34:05;;;;;;;3.92;0.30;;;24.30;82.60;;;-143.79;100.00;62634.88;4993555;28;20042;-59
2022/07/06 09:36:40;;;;;;;3.30;0.50;;;24.30;62.80;;;-143.79;100.00;62634.88;4995010;28;20042;-59
2022/07/06 09:39:28;;;;;;;0.90;0.60;;;24.50;74.20;;;-143.79;100.00;62634.88;4994307;28;20512;-60
2022/07/06 09:41:57;;;;;;;3.83;0.50;;;24.70;72.80;;;-143.79;100.00;62634.88;4993336;28;20034;-60
2022/07/06 09:44:36;;;;;;;4.00;0.30;;;24.10;71.30;;;-143.79;100.00;62634.88;4994361;28;20058;-60
2022/07/06 09:47:06;;;;;;;5.75;0.40;;;24.60;82.80;;;-143.79;100.00;62634.88;4992926;28;20493;-60
2022/07/06 09:49:33;;;;;;;6.80;0.60;;;24.70;83.40;;;-143.79;100.00;62634.88;4993272;28;20104;-61
2022/07/06 09:52:02;;;;;;;2.03;0.25;;;24.90;82.20;;;-143.79;100.00;62634.88;4994380;28;20030;-59
2022/07/06 09:54:29;;;;;;;1.60;0.30;;;23.90;83.50;;;-143.79;100.00;62634.88;4994299;28;20354;-58
2022/07/06 09:56:57;;;;;;;2.35;0.40;;;22.80;52.50;;;-143.79;100.00;62634.88;4994952;28;20038;-58
2022/07/06 09:59:26;;;;;;;4.00;0.50;;;23.30;85.80;;;-143.79;100.00;62634.88;4994214;28;20054;-58
2022/07/06 10:01:55;;;;;;;1.85;0.30;;;23.60;62.80;;;-143.79;100.00;62634.88;4994501;28;20164;-59
2022/07/06 10:04:22;;;;;;;1.17;0.38;;;23.80;71.20;;;-143.79;100.00;62634.88;4993826;28;20483;-57
2022/07/06 10:06:49;;;;;;;1.40;0.40;;;24.20;83.30;;;-143.79;100.00;62634.88;4994668;28;20133;-59
2022/07/06 10:09:18;;;;;;;3.97;0.43;;;24.30;49.90;;;-143.79;100.00;62634.88;4994870;28;20108;-58
2022/07/06 10:11:52;;;;;;;4.45;0.65;;;24.40;81.80;;;-143.79;100.00;62634.88;4994824;28;20038;-59
2022/07/06 10:14:32;;;;;;;2.40;0.50;;;24.70;81.80;;;-143.79;100.00;62634.88;4994233;28;20038;-61
2022/07/06 10:17:01;;;;;;;4.17;0.40;;;24.80;80.90;;;-143.79;100.00;62634.88;4993742;28;20026;-58
2022/07/06 10:19:29;;;;;;;3.08;0.50;;;24.90;81.10;;;-143.79;100.00;62634.88;4993580;28;20725;-60
2022/07/06 10:21:58;;;;;;;3.75;0.70;;;24.80;48.00;;;-143.79;100.00;62634.88;4993415;28;20022;-61
2022/07/06 10:24:25;;;;;;;3.45;0.60;;;25.00;80.20;;;-143.79;100.00;62634.88;4993583;28;20041;-61